createdAt,value
2019-05-10T00:01:17.899Z,95775.27
2019-05-10T00:04:06.518Z,95770.60
2019-05-10T00:06:54.965Z,95766.41
2019-05-10T00:09:25.091Z,95767.35
2019-05-10T00:12:15.179Z,95763.16
2019-05-10T00:14:51.366Z,95766.50
2019-05-10T00:17:24.230Z,95768.36
2019-05-10T00:19:55.343Z,95770.17
2019-05-10T00:22:26.775Z,95768.13
2019-05-10T00:25:04.297Z,95776.08
2019-05-10T00:27:30.842Z,95769.41
2019-05-10T00:30:01.926Z,95773.64
2019-05-10T00:32:34.095Z,95779.41
2019-05-10T00:35:06.095Z,95778.83
2019-05-10T00:37:37.486Z,95785.73
2019-05-10T00:40:08.911Z,95787.36
2019-05-10T00:42:41.142Z,95789.80
2019-05-10T00:45:12.523Z,95788.56
2019-05-10T00:47:43.499Z,95792.91
2019-05-10T00:50:14.734Z,95795.35
2019-05-10T00:52:45.722Z,95805.16
2019-05-10T00:55:19.317Z,95803.88
2019-05-10T00:57:49.940Z,95807.32
2019-05-10T01:00:21.301Z,95807.41
2019-05-10T01:02:52.308Z,95801.69
2019-05-10T01:05:23.470Z,95811.78
2019-05-10T01:07:54.629Z,95813.91
2019-05-10T01:10:25.650Z,95809.73
2019-05-10T01:12:57.704Z,95813.88
2019-05-10T01:15:28.792Z,95814.91
2019-05-10T01:17:59.795Z,95819.61
2019-05-10T01:20:31.857Z,95817.43
2019-05-10T01:23:02.856Z,95815.65
2019-05-10T01:25:35.844Z,95817.59
2019-05-10T01:28:25.722Z,95813.06
2019-05-10T01:30:57.814Z,95814.19
2019-05-10T01:33:29.072Z,95817.78
2019-05-10T01:36:00.166Z,95817.20
2019-05-10T01:38:31.186Z,95827.79
2019-05-10T01:41:02.187Z,95827.01
2019-05-10T01:43:33.233Z,95825.27
2019-05-10T01:46:04.317Z,95824.02
2019-05-10T01:48:35.289Z,95827.01
2019-05-10T01:51:07.954Z,95833.06
2019-05-10T01:53:39.983Z,95830.61
2019-05-10T01:56:11.388Z,95827.89
2019-05-10T01:58:42.389Z,95835.27
2019-05-10T02:01:14.017Z,95829.45
2019-05-10T02:03:45.368Z,95839.17
2019-05-10T02:06:16.456Z,95838.95
2019-05-10T02:08:47.534Z,95836.36
2019-05-10T02:11:18.718Z,95835.18
2019-05-10T02:13:49.837Z,95839.81
2019-05-10T02:16:20.923Z,95827.89
2019-05-10T02:18:52.011Z,95835.67
2019-05-10T02:21:23.049Z,95842.27
2019-05-10T02:23:54.146Z,95838.43
2019-05-10T02:26:25.331Z,95829.41
2019-05-10T02:28:57.817Z,95830.06
2019-05-10T02:31:28.818Z,95832.18
2019-05-10T02:34:00.817Z,95834.54
2019-05-10T02:36:31.880Z,95852.22
2019-05-10T02:39:03.201Z,95852.22
2019-05-10T02:41:34.299Z,95859.30
2019-05-10T02:44:05.472Z,95858.99
2019-05-10T02:46:36.557Z,95859.98
2019-05-10T02:49:08.116Z,95862.66
2019-05-10T02:51:39.209Z,95862.75
2019-05-10T02:54:11.620Z,95865.30
2019-05-10T02:56:43.151Z,95864.17
2019-05-10T02:59:14.389Z,95853.94
2019-05-10T03:01:47.240Z,95862.88
2019-05-10T03:04:20.732Z,95861.21
2019-05-10T03:07:02.579Z,95862.02
2019-05-10T03:09:35.701Z,95859.89
2019-05-10T03:12:24.332Z,95862.16
2019-05-10T03:14:59.387Z,95860.70
2019-05-10T03:17:30.708Z,95870.84
2019-05-10T03:20:02.499Z,95867.84
2019-05-10T03:22:40.469Z,95879.33
2019-05-10T03:25:11.968Z,95879.63
2019-05-10T03:27:43.121Z,95875.31
2019-05-10T03:30:14.830Z,95883.05
2019-05-10T03:32:46.124Z,95881.80
2019-05-10T03:35:17.201Z,95879.40
2019-05-10T03:37:48.469Z,95888.08
2019-05-10T03:40:19.556Z,95898.02
2019-05-10T03:42:50.855Z,95903.05
2019-05-10T03:45:22.086Z,95905.26
2019-05-10T03:47:53.081Z,95902.07
2019-05-10T03:50:24.106Z,95907.09
2019-05-10T03:52:55.142Z,95911.95
2019-05-10T03:55:26.401Z,95910.48
2019-05-10T03:57:58.172Z,95916.48
2019-05-10T04:00:29.286Z,95915.70
2019-05-10T04:03:00.425Z,95919.23
2019-05-10T04:05:31.494Z,95919.41
2019-05-10T04:08:03.535Z,95921.20
2019-05-10T04:10:34.783Z,95922.12
2019-05-10T04:13:05.847Z,95919.58
2019-05-10T04:15:36.925Z,95910.44
2019-05-10T04:18:08.082Z,95921.20
2019-05-10T04:20:39.104Z,95924.19
2019-05-10T04:23:10.113Z,95927.96
2019-05-10T04:25:41.797Z,95926.33
2019-05-10T04:28:12.806Z,95928.08
2019-05-10T04:30:43.860Z,95937.63
2019-05-10T04:33:14.950Z,95941.98
2019-05-10T04:35:45.952Z,95947.53
2019-05-10T04:38:16.966Z,95947.94
2019-05-10T04:40:47.969Z,95940.49
2019-05-10T04:43:19.049Z,95936.43
2019-05-10T04:45:50.060Z,95946.20
2019-05-10T04:48:21.104Z,95948.40
2019-05-10T04:50:52.178Z,95952.23
2019-05-10T04:53:23.481Z,95951.45
2019-05-10T04:55:54.505Z,95956.97
2019-05-10T04:58:25.567Z,95948.11
2019-05-10T05:00:56.624Z,95955.50
2019-05-10T05:03:27.632Z,95949.14
2019-05-10T05:05:58.715Z,95959.00
2019-05-10T05:08:30.688Z,95962.14
2019-05-10T05:11:01.715Z,95965.77
2019-05-10T05:13:32.721Z,95965.81
2019-05-10T05:16:03.868Z,95967.16
2019-05-10T05:18:34.877Z,95962.43
2019-05-10T05:21:05.959Z,95959.03
2019-05-10T05:23:38.592Z,95966.66
2019-05-10T05:26:09.708Z,95977.45
2019-05-10T05:28:42.056Z,95977.78
2019-05-10T05:31:13.131Z,95978.93
2019-05-10T05:33:44.148Z,95982.66
2019-05-10T05:36:15.233Z,95981.67
2019-05-10T05:38:47.767Z,95985.12
2019-05-10T05:41:20.130Z,95986.03
2019-05-10T05:43:51.253Z,95980.23
2019-05-10T05:46:22.673Z,95984.28
2019-05-10T05:48:53.710Z,95988.75
2019-05-10T05:51:24.706Z,95988.97
2019-05-10T05:53:55.770Z,95990.98
2019-05-10T05:56:26.758Z,95995.03
2019-05-10T05:58:58.411Z,96000.36
2019-05-10T06:01:29.826Z,96003.09
2019-05-10T06:04:06.379Z,96011.05
2019-05-10T06:06:34.714Z,96009.91
2019-05-10T06:09:08.061Z,96002.91
2019-05-10T06:11:39.095Z,95998.41
2019-05-10T06:14:12.537Z,95999.21
2019-05-10T06:16:44.982Z,96001.77
2019-05-10T06:19:20.490Z,96002.22
2019-05-10T06:21:48.651Z,96008.95
2019-05-10T06:24:19.691Z,96008.50
2019-05-10T06:26:50.876Z,96008.47
2019-05-10T06:29:21.912Z,96009.02
2019-05-10T06:31:52.987Z,96017.61
2019-05-10T06:34:25.141Z,96024.53
2019-05-10T06:36:58.522Z,96022.75
2019-05-10T06:39:29.656Z,96023.06
2019-05-10T06:42:00.787Z,96027.61
2019-05-10T06:44:33.149Z,96032.44
2019-05-10T06:47:08.468Z,96030.03
2019-05-10T06:49:41.063Z,96035.11
2019-05-10T06:52:10.208Z,96032.32
2019-05-10T06:54:42.259Z,96032.63
2019-05-10T06:57:17.436Z,96032.47
2019-05-10T06:59:46.155Z,96040.52
2019-05-10T07:02:19.929Z,96035.92
2019-05-10T07:04:51.035Z,96042.61
2019-05-10T07:07:42.656Z,96044.03
2019-05-10T07:10:12.356Z,96046.76
2019-05-10T07:12:30.273Z,96049.64
2019-05-10T07:15:03.492Z,96045.20
2019-05-10T07:17:41.416Z,96053.17
2019-05-10T07:20:08.062Z,96052.26
2019-05-10T07:22:39.052Z,96053.81
2019-05-10T07:25:10.763Z,96056.50
2019-05-10T07:27:42.275Z,96059.83
2019-05-10T07:30:13.456Z,96058.77
2019-05-10T07:32:44.612Z,96053.48
2019-05-10T07:35:15.814Z,96063.55
2019-05-10T07:37:47.695Z,96059.86
2019-05-10T07:40:19.617Z,96065.05
2019-05-10T07:42:50.671Z,96069.23
2019-05-10T07:45:25.488Z,96071.07
2019-05-10T07:47:54.660Z,96071.07
2019-05-10T07:50:25.819Z,96063.49
2019-05-10T07:52:56.933Z,96073.42
2019-05-10T07:55:29.845Z,96075.44
2019-05-10T07:58:05.121Z,96067.73
2019-05-10T08:00:37.901Z,96066.05
2019-05-10T08:03:15.852Z,96068.98
2019-05-10T08:05:39.625Z,96070.48
2019-05-10T08:08:10.769Z,96073.48
2019-05-10T08:10:42.515Z,96079.73
2019-05-10T08:13:15.372Z,96081.13
2019-05-10T08:15:49.001Z,96081.42
2019-05-10T08:18:21.121Z,96081.97
2019-05-10T08:20:57.734Z,96076.70
2019-05-10T08:23:27.740Z,96079.14
2019-05-10T08:25:58.682Z,96075.31
2019-05-10T08:28:36.087Z,96074.48
2019-05-10T08:31:02.642Z,96074.44
2019-05-10T08:33:33.708Z,96074.69
2019-05-10T08:36:05.421Z,96073.77
2019-05-10T08:38:39.718Z,96076.80
2019-05-10T08:41:14.768Z,96079.64
2019-05-10T08:43:45.371Z,96076.94
2019-05-10T08:46:19.357Z,96083.72
2019-05-10T08:48:53.084Z,96088.17
2019-05-10T08:51:22.857Z,96083.50
2019-05-10T08:53:58.219Z,96093.17
2019-05-10T08:56:26.924Z,96093.66
2019-05-10T08:58:59.024Z,96098.72
2019-05-10T09:01:33.535Z,96093.44
2019-05-10T09:04:06.766Z,96090.69
2019-05-10T09:06:35.932Z,96099.14
2019-05-10T09:09:08.496Z,96095.50
2019-05-10T09:11:44.030Z,96097.33
2019-05-10T09:14:19.719Z,96092.55
2019-05-10T09:16:56.544Z,96093.22
2019-05-10T09:19:27.799Z,96099.73
2019-05-10T09:21:55.021Z,96099.77
2019-05-10T09:24:25.227Z,96094.67
2019-05-10T09:26:57.137Z,96091.78
2019-05-10T09:29:33.028Z,96089.75
2019-05-10T09:32:06.087Z,96096.13
2019-05-10T09:34:33.775Z,96090.00
2019-05-10T09:37:08.101Z,96094.80
2019-05-10T09:39:37.641Z,96093.80
2019-05-10T09:42:16.386Z,96092.41
2019-05-10T09:44:45.599Z,96099.14
2019-05-10T09:47:15.498Z,96103.37
2019-05-10T09:49:56.649Z,96094.66
2019-05-10T09:52:19.533Z,96103.94
2019-05-10T09:54:50.684Z,96110.00
2019-05-10T09:57:21.887Z,96111.91
2019-05-10T09:59:54.002Z,96105.05
2019-05-10T10:02:31.087Z,96105.13
2019-05-10T10:04:59.153Z,96113.11
2019-05-10T10:07:33.567Z,96118.19
2019-05-10T10:10:03.269Z,96112.88
2019-05-10T10:12:37.063Z,96119.46
2019-05-10T10:15:10.704Z,96118.66
2019-05-10T10:17:42.301Z,96126.76
2019-05-10T10:20:14.232Z,96122.37
2019-05-10T10:22:49.652Z,96129.71
2019-05-10T10:25:18.225Z,96130.56
2019-05-10T10:27:49.349Z,96128.16
2019-05-10T10:30:21.658Z,96119.95
2019-05-10T10:32:53.785Z,96123.59
2019-05-10T10:35:27.717Z,96121.20
2019-05-10T10:38:02.802Z,96129.89
2019-05-10T10:40:35.473Z,96125.38
2019-05-10T10:43:03.562Z,96129.13
2019-05-10T10:45:37.419Z,96129.96
2019-05-10T10:48:11.423Z,96124.74
2019-05-10T10:50:44.211Z,96127.76
2019-05-10T10:53:13.219Z,96122.72
2019-05-10T10:55:48.475Z,96120.89
2019-05-10T10:58:18.555Z,96113.27
2019-05-10T11:00:50.039Z,96120.81
2019-05-10T11:03:23.995Z,96119.56
2019-05-10T11:05:54.079Z,96115.29
2019-05-10T11:08:25.169Z,96119.25
2019-05-10T11:10:56.309Z,96116.83
2019-05-10T11:13:41.555Z,96116.34
2019-05-10T11:16:09.919Z,96112.44
2019-05-10T11:18:32.871Z,96112.67
2019-05-10T11:21:04.093Z,96115.10
2019-05-10T11:23:39.125Z,96119.38
2019-05-10T11:26:07.932Z,96119.38
2019-05-10T11:28:43.979Z,96118.47
2019-05-10T11:31:13.113Z,96110.98
2019-05-10T11:33:47.214Z,96116.81
2019-05-10T11:36:16.901Z,96116.48
2019-05-10T11:38:56.906Z,96114.16
2019-05-10T11:41:23.778Z,96117.03
2019-05-10T11:43:57.999Z,96117.31
2019-05-10T11:46:28.047Z,96127.91
2019-05-10T11:49:01.557Z,96128.38
2019-05-10T11:51:32.235Z,96127.88
2019-05-10T11:54:03.355Z,96130.72
2019-05-10T11:56:34.453Z,96139.71
2019-05-10T11:59:06.019Z,96134.64
2019-05-10T12:01:41.485Z,96135.18
2019-05-10T12:04:22.173Z,96134.72
2019-05-10T12:06:49.885Z,96136.11
2019-05-10T12:09:16.742Z,96139.05
2019-05-10T12:11:56.724Z,96139.03
2019-05-10T12:14:21.907Z,96133.69
2019-05-10T12:16:54.504Z,96138.42
2019-05-10T12:19:25.900Z,96142.67
2019-05-10T12:21:56.953Z,96139.98
2019-05-10T12:24:45.575Z,96142.37
2019-05-10T12:27:18.486Z,96148.20
2019-05-10T12:29:33.510Z,96141.77
2019-05-10T12:32:04.694Z,96135.84
2019-05-10T12:34:35.751Z,96135.39
2019-05-10T12:37:08.426Z,96137.53
2019-05-10T12:39:39.724Z,96135.86
2019-05-10T12:42:11.329Z,96138.81
2019-05-10T12:44:47.957Z,96139.16
2019-05-10T12:47:17.774Z,96144.23
2019-05-10T12:49:54.010Z,96142.67
2019-05-10T12:52:27.725Z,96146.92
2019-05-10T12:54:54.459Z,96146.07
2019-05-10T12:57:25.642Z,96150.34
2019-05-10T12:59:56.817Z,96155.64
2019-05-10T13:02:27.948Z,96160.24
2019-05-10T13:04:59.967Z,96167.41
2019-05-10T13:07:31.116Z,96165.65
2019-05-10T13:10:06.023Z,96172.00
2019-05-10T13:12:36.753Z,96164.00
2019-05-10T13:15:08.473Z,96166.87
2019-05-10T13:17:44.190Z,96168.25
2019-05-10T13:20:14.068Z,96173.63
2019-05-10T13:22:45.132Z,96174.64
2019-05-10T13:25:16.628Z,96176.28
2019-05-10T13:27:47.732Z,96175.55
2019-05-10T13:30:27.492Z,96183.77
2019-05-10T13:32:58.826Z,96176.93
2019-05-10T13:35:24.765Z,96187.52
2019-05-10T13:37:56.775Z,96181.03
2019-05-10T13:40:28.731Z,96184.77
2019-05-10T13:42:59.806Z,96190.33
2019-05-10T13:45:31.811Z,96190.58
2019-05-10T13:48:03.781Z,96194.05
2019-05-10T13:50:34.980Z,96200.13
2019-05-10T13:53:06.195Z,96196.34
2019-05-10T13:55:37.245Z,96197.39
2019-05-10T13:58:08.591Z,96198.88
2019-05-10T14:00:39.755Z,96185.95
2019-05-10T14:03:13.320Z,96188.38
2019-05-10T14:05:43.834Z,96187.30
2019-05-10T14:08:14.924Z,96180.14
2019-05-10T14:10:49.204Z,96180.14
2019-05-10T14:13:18.669Z,96178.91
2019-05-10T14:15:49.651Z,96175.48
2019-05-10T14:18:21.821Z,96165.67
2019-05-10T14:20:52.863Z,96165.66
2019-05-10T14:23:28.879Z,96164.28
2019-05-10T14:25:56.669Z,96161.08
2019-05-10T14:28:27.676Z,96164.20
2019-05-10T14:31:00.134Z,96161.22
2019-05-10T14:33:31.151Z,96154.33
2019-05-10T14:36:03.348Z,96152.80
2019-05-10T14:38:34.753Z,96145.42
2019-05-10T14:41:10.909Z,96151.73
2019-05-10T14:43:38.650Z,96148.36
2019-05-10T14:46:13.746Z,96142.80
2019-05-10T14:48:43.709Z,96143.84
2019-05-10T14:51:15.084Z,96147.09
2019-05-10T14:53:46.233Z,96146.70
2019-05-10T14:56:17.405Z,96150.60
2019-05-10T14:58:48.540Z,96149.52
2019-05-10T15:01:19.585Z,96150.27
2019-05-10T15:03:50.664Z,96150.84
2019-05-10T15:06:22.052Z,96150.09
2019-05-10T15:08:53.454Z,96156.04
2019-05-10T15:11:26.489Z,96151.20
2019-05-10T15:13:57.379Z,96160.98
2019-05-10T15:16:30.908Z,96162.57
2019-05-10T15:19:01.404Z,96154.10
2019-05-10T15:21:34.570Z,96162.34
2019-05-10T15:24:05.641Z,96156.27
2019-05-10T15:26:37.592Z,96167.71
2019-05-10T15:29:15.044Z,96158.41
2019-05-10T15:31:43.695Z,96159.92
2019-05-10T15:34:14.830Z,96163.73
2019-05-10T15:36:45.904Z,96156.52
2019-05-10T15:39:16.959Z,96157.58
2019-05-10T15:41:48.069Z,96158.92
2019-05-10T15:44:19.137Z,96152.55
2019-05-10T15:46:50.200Z,96154.63
2019-05-10T15:49:24.408Z,96163.41
2019-05-10T15:51:56.984Z,96158.86
2019-05-10T15:54:27.038Z,96151.18
2019-05-10T15:56:58.193Z,96142.38
2019-05-10T15:59:29.335Z,96135.50
2019-05-10T16:02:00.916Z,96134.67
2019-05-10T16:04:32.067Z,96138.68
2019-05-10T16:07:03.137Z,96134.67
2019-05-10T16:09:34.221Z,96127.50
2019-05-10T16:12:08.572Z,96130.42
2019-05-10T16:14:39.194Z,96142.37
2019-05-10T16:17:17.647Z,96138.89
2019-05-10T16:19:43.973Z,96141.81
2019-05-10T16:22:15.108Z,96143.94
2019-05-10T16:24:46.196Z,96149.25
2019-05-10T16:27:17.275Z,96144.45
2019-05-10T16:29:48.426Z,96142.80
2019-05-10T16:32:19.471Z,96152.43
2019-05-10T16:34:50.492Z,96150.50
2019-05-10T16:37:22.470Z,96143.58
2019-05-10T16:39:53.519Z,96145.19
2019-05-10T16:42:27.976Z,96133.20
2019-05-10T16:44:57.350Z,96135.29
2019-05-10T16:47:28.316Z,96146.18
2019-05-10T16:50:00.349Z,96141.66
2019-05-10T16:52:31.471Z,96146.17
2019-05-10T16:55:03.575Z,96148.25
2019-05-10T16:57:37.398Z,96150.36
2019-05-10T17:00:10.719Z,96156.98
2019-05-10T17:02:43.820Z,96156.98
2019-05-10T17:05:17.158Z,96158.83
2019-05-10T17:07:47.861Z,96154.59
2019-05-10T17:10:19.042Z,96155.88
2019-05-10T17:12:50.056Z,96150.02
2019-05-10T17:15:21.362Z,96148.70
2019-05-10T17:17:52.353Z,96152.15
2019-05-10T17:20:23.542Z,96145.22
2019-05-10T17:22:54.555Z,96146.02
2019-05-10T17:25:25.641Z,96147.34
2019-05-10T17:27:59.811Z,96147.11
2019-05-10T17:30:29.589Z,96153.49
2019-05-10T17:33:03.792Z,96144.21
2019-05-10T17:35:36.635Z,96136.98
2019-05-10T17:38:07.891Z,96137.55
2019-05-10T17:40:42.330Z,96126.63
2019-05-10T17:43:14.522Z,96132.47
2019-05-10T17:45:44.638Z,96132.23
2019-05-10T17:48:15.721Z,96133.55
2019-05-10T17:50:46.774Z,96138.56
2019-05-10T17:53:17.969Z,96138.06
2019-05-10T17:55:55.336Z,96142.55
2019-05-10T17:58:22.254Z,96137.19
2019-05-10T18:00:53.390Z,96132.13
2019-05-10T18:03:24.643Z,96134.78
2019-05-10T18:05:55.777Z,96135.56
2019-05-10T18:08:27.150Z,96135.81
2019-05-10T18:11:04.136Z,96129.40
2019-05-10T18:13:35.460Z,96138.36
2019-05-10T18:16:09.072Z,96137.83
2019-05-10T18:18:46.411Z,96137.25
2019-05-10T18:21:15.738Z,96133.75
2019-05-10T18:23:44.372Z,96139.55
2019-05-10T18:26:15.536Z,96143.00
2019-05-10T18:28:46.583Z,96130.49
2019-05-10T18:31:17.907Z,96132.38
2019-05-10T18:33:54.250Z,96132.63
2019-05-10T18:36:26.711Z,96131.84
2019-05-10T18:38:55.125Z,96135.50
2019-05-10T18:41:26.207Z,96138.08
2019-05-10T18:43:57.416Z,96144.41
2019-05-10T18:46:28.511Z,96146.41
2019-05-10T18:49:00.834Z,96152.52
2019-05-10T18:51:34.517Z,96153.80
2019-05-10T18:54:04.822Z,96147.08
2019-05-10T18:56:36.007Z,96151.03
2019-05-10T18:59:09.231Z,96143.71
2019-05-10T19:01:40.710Z,96155.04
2019-05-10T19:04:14.124Z,96159.45
2019-05-10T19:06:50.202Z,96151.45
2019-05-10T19:09:17.786Z,96154.53
2019-05-10T19:11:49.040Z,96164.53
2019-05-10T19:14:23.975Z,96168.99
2019-05-10T19:16:53.588Z,96165.34
2019-05-10T19:19:24.641Z,96161.34
2019-05-10T19:22:10.252Z,96159.36
2019-05-10T19:24:42.739Z,96151.47
2019-05-10T19:27:14.501Z,96144.46
2019-05-10T19:29:47.842Z,96148.67
2019-05-10T19:32:20.214Z,96151.95
2019-05-10T19:34:57.339Z,96153.31
2019-05-10T19:37:31.359Z,96157.23
2019-05-10T19:39:56.782Z,96168.39
2019-05-10T19:42:31.351Z,96159.61
2019-05-10T19:45:01.060Z,96160.90
2019-05-10T19:47:33.346Z,96163.55
2019-05-10T19:50:04.798Z,96181.31
2019-05-10T19:52:35.954Z,96177.06
2019-05-10T19:55:07.295Z,96172.82
2019-05-10T19:57:38.445Z,96175.05
2019-05-10T20:03:15.245Z,96174.20
2019-05-10T20:05:46.494Z,96175.62
2019-05-10T20:08:17.740Z,96175.28
2019-05-10T20:10:48.789Z,96183.67
2019-05-10T20:13:19.980Z,96183.89
2019-05-10T20:15:51.267Z,96184.57
2019-05-10T20:18:22.685Z,96178.97
2019-05-10T20:20:53.751Z,96184.27
2019-05-10T20:23:24.901Z,96177.38
2019-05-10T20:25:59.195Z,96180.97
2019-05-10T20:28:28.889Z,96173.95
2019-05-10T20:31:00.275Z,96177.45
2019-05-10T20:33:31.341Z,96172.42
2019-05-10T20:36:02.474Z,96172.19
2019-05-10T20:38:33.487Z,96168.01
2019-05-10T20:41:04.602Z,96166.86
2019-05-10T20:43:35.644Z,96162.78
2019-05-10T20:46:07.292Z,96160.78
2019-05-10T20:48:38.545Z,96160.78
2019-05-10T20:51:09.696Z,96152.23
2019-05-10T20:53:41.260Z,96150.84
2019-05-10T20:56:12.409Z,96158.34
2019-05-10T20:58:43.480Z,96163.66
2019-05-10T21:01:14.535Z,96154.77
2019-05-10T21:03:45.693Z,96153.19
2019-05-10T21:06:16.837Z,96157.15
2019-05-10T21:08:47.895Z,96155.22
2019-05-10T21:11:18.930Z,96153.75
2019-05-10T21:13:49.982Z,96141.54
2019-05-10T21:16:21.102Z,96137.81
2019-05-10T21:18:52.312Z,96141.06
2019-05-10T21:21:23.437Z,96140.25
2019-05-10T21:23:54.473Z,96147.72
2019-05-10T21:26:25.489Z,96144.49
2019-05-10T21:28:56.594Z,96138.08
2019-05-10T21:31:28.755Z,96123.73
2019-05-10T21:34:09.424Z,96117.86
2019-05-10T21:36:32.582Z,96112.77
2019-05-10T21:39:07.131Z,96113.92
2019-05-10T21:41:38.148Z,96112.53
2019-05-10T21:44:09.338Z,96102.97
2019-05-10T21:46:40.538Z,96097.98
2019-05-10T21:49:11.823Z,96087.67
2019-05-10T21:51:42.919Z,96092.69
2019-05-10T21:54:13.987Z,96098.25
2019-05-10T21:56:45.114Z,96105.45
2019-05-10T21:59:17.323Z,96116.91
2019-05-10T22:01:48.646Z,96113.75
2019-05-10T22:04:19.755Z,96107.19
2019-05-10T22:06:51.809Z,96101.47
2019-05-10T22:09:23.031Z,96105.23
2019-05-10T22:11:54.169Z,96098.48
2019-05-10T22:14:26.323Z,96107.16
2019-05-10T22:16:57.396Z,96107.97
2019-05-10T22:19:28.898Z,96111.20
2019-05-10T22:21:59.957Z,96119.77
2019-05-10T22:24:31.100Z,96124.66
2019-05-10T22:27:02.176Z,96120.08
2019-05-10T22:29:33.257Z,96133.84
2019-05-10T22:32:04.399Z,96130.34
2019-05-10T22:34:35.454Z,96115.02
2019-05-10T22:37:06.588Z,96120.08
2019-05-10T22:39:37.688Z,96103.05
2019-05-10T22:42:08.739Z,96098.61
2019-05-10T22:44:39.806Z,96099.92
2019-05-10T22:47:10.886Z,96091.95
2019-05-10T22:49:44.173Z,96087.56
2019-05-10T22:52:15.703Z,96080.95
2019-05-10T22:54:46.883Z,96088.23
2019-05-10T22:57:18.021Z,96089.86
2019-05-10T22:59:49.123Z,96087.53
2019-05-10T23:02:20.323Z,96091.14
2019-05-10T23:04:51.443Z,96084.73
2019-05-10T23:07:22.555Z,96088.73
2019-05-10T23:09:53.673Z,96074.63
2019-05-10T23:12:25.107Z,96080.80
2019-05-10T23:14:56.315Z,96077.34
2019-05-10T23:17:27.465Z,96068.63
2019-05-10T23:19:59.110Z,96072.05
2019-05-10T23:22:30.163Z,96069.45
2019-05-10T23:25:01.261Z,96056.22
2019-05-10T23:27:32.306Z,96054.80
2019-05-10T23:30:03.554Z,96036.80
2019-05-10T23:32:34.773Z,96033.65
2019-05-10T23:35:06.091Z,96025.04
2019-05-10T23:37:37.459Z,96017.03
2019-05-10T23:40:09.138Z,96015.72
2019-05-10T23:42:40.208Z,96009.61
2019-05-10T23:45:13.017Z,96002.13
2019-05-10T23:47:44.180Z,95997.84
2019-05-10T23:50:15.440Z,96000.53
2019-05-10T23:52:46.619Z,95986.53
2019-05-10T23:55:17.805Z,95987.20
2019-05-10T23:57:48.965Z,95992.80
